Time;durP1;ratioP1;P1;durP2;ratioP2;P2;SDS_P1;SDS_P2;PMS_P1;PMS_P2;Temp;Humidity;BMP_temperature;BMP_pressure;BME280_temperature;BME280_humidity;BME280_pressure;Samples;Min_cycle;Max_cycle;Signal;HPM_P1;HPM_P2
2022/02/19 00:00:30;;;;;;;3.23;3.07;;;9.10;31.70;;;;;;5097795;27;20438;-80
2022/02/19 00:02:56;;;;;;;4.60;3.40;;;9.10;31.70;;;;;;5107139;27;20447;-81
2022/02/19 00:05:24;;;;;;;2.87;2.63;;;9.00;32.90;;;;;;5092945;28;20182;-81
2022/02/19 00:07:50;;;;;;;3.27;3.00;;;9.00;33.00;;;;;;5087717;28;20453;-81
2022/02/19 00:10:16;;;;;;;4.87;3.00;;;9.00;32.90;;;;;;5081400;28;20441;-81
2022/02/19 00:12:42;;;;;;;3.77;3.20;;;9.00;31.70;;;;;;5091859;27;20494;-81
2022/02/19 00:15:08;;;;;;;7.37;3.27;;;9.00;31.60;;;;;;5089104;28;20179;-81
2022/02/19 00:17:34;;;;;;;5.50;4.07;;;9.00;31.60;;;;;;5095510;27;20240;-81
2022/02/19 00:20:02;;;;;;;5.90;3.40;;;9.00;31.70;;;;;;5090729;28;20423;-81
2022/02/19 00:22:28;;;;;;;3.43;3.13;;;9.00;32.40;;;;;;5073838;28;20290;-81
2022/02/19 00:24:54;;;;;;;3.73;3.53;;;9.00;31.70;;;;;;5083761;28;20519;-80
2022/02/19 00:27:19;;;;;;;3.77;2.50;;;9.00;31.60;;;;;;5093712;28;20404;-80
2022/02/19 00:29:46;;;;;;;2.80;2.60;;;8.90;30.80;;;;;;5093618;28;20177;-81
2022/02/19 00:32:12;;;;;;;2.97;2.77;;;9.00;31.70;;;;;;5093139;28;20181;-80
2022/02/19 00:34:38;;;;;;;3.70;3.33;;;9.00;31.70;;;;;;5093290;28;20420;-80
2022/02/19 00:37:04;;;;;;;5.33;3.07;;;9.00;30.70;;;;;;5093473;28;20415;-82
2022/02/19 00:39:29;;;;;;;3.80;3.50;;;8.90;29.90;;;;;;5092808;28;20536;-80
2022/02/19 00:41:55;;;;;;;2.80;2.70;;;8.90;29.80;;;;;;5092399;28;20422;-81
2022/02/19 00:44:21;;;;;;;4.27;2.80;;;8.90;30.30;;;;;;5093275;28;20560;-81
2022/02/19 00:46:47;;;;;;;5.93;3.93;;;8.90;30.00;;;;;;5092752;28;20412;-80
2022/02/19 00:49:12;;;;;;;4.30;3.00;;;8.80;31.10;;;;;;5092923;28;20177;-81
2022/02/19 00:51:38;;;;;;;3.57;3.23;;;8.80;30.70;;;;;;5092915;28;20174;-81
2022/02/19 00:54:04;;;;;;;2.53;2.43;;;8.90;30.80;;;;;;5092540;28;20205;-81
2022/02/19 00:56:29;;;;;;;9.37;3.27;;;8.90;30.20;;;;;;5093090;28;20212;-81
2022/02/19 00:58:55;;;;;;;12.17;3.20;;;8.80;30.90;;;;;;5092474;28;20642;-82
2022/02/19 01:01:22;;;;;;;4.60;2.73;;;8.80;31.10;;;;;;5092389;28;20173;-81
2022/02/19 01:03:48;;;;;;;6.07;3.13;;;8.80;31.10;;;;;;5092343;28;20703;-81
2022/02/19 01:06:14;;;;;;;3.60;2.97;;;8.80;31.40;;;;;;5092685;28;20412;-81
2022/02/19 01:08:39;;;;;;;4.10;2.80;;;8.80;31.50;;;;;;5092767;28;20198;-81
2022/02/19 01:11:05;;;;;;;3.30;3.00;;;8.80;30.90;;;;;;5092335;28;20263;-81
2022/02/19 01:13:31;;;;;;;4.43;2.77;;;8.80;30.70;;;;;;5092492;28;20631;-81
2022/02/19 01:15:58;;;;;;;6.57;3.53;;;8.80;29.90;;;;;;5091963;28;20184;-81
2022/02/19 01:18:24;;;;;;;3.40;3.10;;;8.80;29.90;;;;;;5092219;28;20182;-81
2022/02/19 01:20:50;;;;;;;8.07;3.53;;;8.80;29.90;;;;;;5091708;28;20418;-81
2022/02/19 01:23:15;;;;;;;9.20;3.77;;;8.80;29.50;;;;;;5091538;28;20209;-81
2022/02/19 01:25:41;;;;;;;4.87;3.60;;;8.80;30.20;;;;;;5091857;28;20641;-81
2022/02/19 01:28:07;;;;;;;3.70;3.37;;;8.80;29.90;;;;;;5093460;28;20174;-81
2022/02/19 01:30:32;;;;;;;5.33;3.00;;;8.80;29.30;;;;;;5092615;28;20174;-81
2022/02/19 01:32:58;;;;;;;3.53;3.33;;;8.80;29.70;;;;;;5092525;28;20173;-81
2022/02/19 01:35:24;;;;;;;3.97;3.57;;;8.80;30.00;;;;;;5092589;28;20169;-81
2022/02/19 01:37:50;;;;;;;6.37;3.30;;;8.80;29.30;;;;;;5093205;28;20475;-81
2022/02/19 01:40:16;;;;;;;6.80;4.00;;;8.80;29.60;;;;;;5092869;28;20177;-81
2022/02/19 01:42:42;;;;;;;3.53;3.33;;;8.80;29.30;;;;;;5091818;28;20461;-81
2022/02/19 01:45:11;;;;;;;4.23;3.23;;;8.70;29.60;;;;;;5092291;28;20498;-81
2022/02/19 01:47:37;;;;;;;5.10;3.40;;;8.80;29.50;;;;;;5092486;28;20527;-81
2022/02/19 01:50:04;;;;;;;3.03;2.93;;;8.80;29.00;;;;;;5110683;28;20430;-82
2022/02/19 01:52:30;;;;;;;3.17;2.83;;;8.80;29.50;;;;;;5093584;28;20411;-81
2022/02/19 01:54:56;;;;;;;5.70;2.80;;;8.70;28.90;;;;;;5096295;28;20788;-82
2022/02/19 01:57:22;;;;;;;4.47;3.73;;;8.80;28.80;;;;;;5096188;28;20940;-81
2022/02/19 01:59:48;;;;;;;4.90;3.20;;;8.70;28.30;;;;;;5095793;28;20411;-82
2022/02/19 02:02:14;;;;;;;3.80;3.50;;;8.70;28.10;;;;;;5095162;28;20467;-81
2022/02/19 02:04:41;;;;;;;4.40;3.60;;;8.70;27.80;;;;;;5095545;28;20407;-82
2022/02/19 02:07:08;;;;;;;5.47;3.27;;;8.70;27.80;;;;;;5095596;28;20226;-81
2022/02/19 02:09:38;;;;;;;2.80;2.60;;;8.70;27.80;;;;;;5096074;28;20794;-81
2022/02/19 02:12:06;;;;;;;7.10;3.03;;;8.70;27.80;;;;;;5096198;28;20411;-81
2022/02/19 02:14:39;;;;;;;3.27;3.03;;;8.70;27.20;;;;;;5095719;28;20418;-81
2022/02/19 02:17:04;;;;;;;2.70;2.50;;;8.60;27.10;;;;;;5095590;28;20521;-82
2022/02/19 02:19:30;;;;;;;4.87;3.43;;;8.50;27.30;;;;;;5095863;28;20537;-82
2022/02/19 02:21:56;;;;;;;7.30;3.30;;;8.60;27.40;;;;;;5095248;28;20532;-81
2022/02/19 02:24:22;;;;;;;3.67;3.37;;;8.60;27.60;;;;;;5095678;28;20177;-81
2022/02/19 02:26:48;;;;;;;10.33;4.83;;;8.60;28.00;;;;;;5095102;28;20177;-81
2022/02/19 02:29:14;;;;;;;6.00;3.33;;;8.60;27.10;;;;;;5095906;28;20766;-81
2022/02/19 02:31:40;;;;;;;6.73;3.60;;;8.60;27.30;;;;;;5095506;28;20501;-80
2022/02/19 02:34:05;;;;;;;3.60;3.23;;;8.60;27.70;;;;;;5095432;28;20182;-81
2022/02/19 02:36:31;;;;;;;3.50;3.30;;;8.50;27.80;;;;;;5095627;28;20198;-83
2022/02/19 02:38:58;;;;;;;5.40;3.30;;;8.50;27.60;;;;;;5095538;28;20231;-79
2022/02/19 02:41:24;;;;;;;2.87;2.77;;;8.40;27.20;;;;;;5095103;28;20177;-79
2022/02/19 02:43:50;;;;;;;5.57;3.77;;;8.50;27.30;;;;;;5094889;28;20542;-80
2022/02/19 02:46:16;;;;;;;3.40;3.10;;;8.40;27.60;;;;;;5095159;28;20446;-80
2022/02/19 02:48:41;;;;;;;3.20;3.00;;;8.40;27.50;;;;;;5095471;28;20177;-80
2022/02/19 02:51:07;;;;;;;3.80;3.43;;;8.30;28.30;;;;;;5095552;28;20181;-80
2022/02/19 02:53:33;;;;;;;7.37;3.20;;;8.40;27.30;;;;;;5094840;28;20612;-80
2022/02/19 02:55:59;;;;;;;5.97;3.63;;;8.30;27.30;;;;;;5094699;28;20221;-80
2022/02/19 02:58:25;;;;;;;4.93;3.40;;;8.40;28.20;;;;;;5112865;28;20490;-80
2022/02/19 03:00:51;;;;;;;4.07;3.50;;;8.40;28.00;;;;;;5094529;28;20294;-81
2022/02/19 03:03:17;;;;;;;6.57;3.83;;;8.30;28.00;;;;;;5093474;28;20198;-81
2022/02/19 03:05:43;;;;;;;4.17;3.60;;;8.30;27.80;;;;;;5093201;28;20498;-80
2022/02/19 03:08:09;;;;;;;6.17;3.50;;;8.30;28.00;;;;;;5094047;28;20569;-80
2022/02/19 03:10:34;;;;;;;3.50;3.27;;;8.30;28.30;;;;;;5094200;28;20572;-80
2022/02/19 03:13:00;;;;;;;6.60;3.70;;;8.30;28.70;;;;;;5093542;28;20447;-80
2022/02/19 03:15:26;;;;;;;4.83;3.40;;;8.30;28.80;;;;;;5093374;28;20534;-80
2022/02/19 03:17:51;;;;;;;5.83;3.40;;;8.30;28.90;;;;;;5093222;28;20571;-81
2022/02/19 03:20:19;;;;;;;3.50;3.20;;;8.30;28.20;;;;;;5093549;28;20177;-80
2022/02/19 03:22:46;;;;;;;4.23;3.83;;;8.40;27.50;;;;;;5093470;28;20198;-80
2022/02/19 03:25:13;;;;;;;5.77;3.60;;;8.30;27.60;;;;;;5093672;28;20515;-80
2022/02/19 03:27:39;;;;;;;5.03;3.57;;;8.20;28.00;;;;;;5093704;28;20496;-80
2022/02/19 03:30:06;;;;;;;3.80;3.50;;;8.20;27.80;;;;;;5093475;28;20766;-81
2022/02/19 03:32:32;;;;;;;3.90;3.50;;;8.20;28.10;;;;;;5093168;28;20420;-80
2022/02/19 03:34:58;;;;;;;5.40;3.37;;;8.10;27.90;;;;;;5093698;28;20791;-80
2022/02/19 03:37:23;;;;;;;3.87;3.67;;;8.20;28.10;;;;;;5093783;28;20424;-80
2022/02/19 03:39:49;;;;;;;8.87;4.53;;;8.10;28.70;;;;;;5093150;28;20189;-81
2022/02/19 03:42:15;;;;;;;4.47;3.50;;;8.10;27.90;;;;;;5093334;28;20187;-80
2022/02/19 03:44:40;;;;;;;4.80;3.67;;;8.10;27.30;;;;;;5093368;28;20166;-80
2022/02/19 03:47:06;;;;;;;6.90;3.43;;;8.00;27.50;;;;;;5093042;28;20695;-80
2022/02/19 03:49:32;;;;;;;5.13;4.63;;;7.90;28.00;;;;;;5093288;28;20650;-80
2022/02/19 03:51:57;;;;;;;6.60;4.00;;;7.90;28.50;;;;;;5092553;28;20260;-80
2022/02/19 03:54:23;;;;;;;3.40;3.10;;;7.80;28.70;;;;;;5093305;28;20306;-81
2022/02/19 03:56:49;;;;;;;4.57;3.73;;;7.90;28.30;;;;;;5092140;28;20625;-80
2022/02/19 03:59:16;;;;;;;3.30;3.10;;;7.80;28.80;;;;;;5092766;28;20177;-80
2022/02/19 04:01:42;;;;;;;4.93;3.60;;;7.90;29.20;;;;;;5093339;28;20539;-80
2022/02/19 04:04:08;;;;;;;5.60;4.13;;;8.00;28.40;;;;;;5092386;28;20470;-80
2022/02/19 04:06:34;;;;;;;4.30;3.20;;;7.90;28.70;;;;;;5075748;28;21117;-80
2022/02/19 04:09:00;;;;;;;8.73;4.13;;;7.90;28.50;;;;;;5092491;28;20209;-80
2022/02/19 04:11:25;;;;;;;3.77;3.40;;;7.80;28.60;;;;;;5092679;28;20428;-80
2022/02/19 04:13:51;;;;;;;5.50;3.70;;;7.90;27.90;;;;;;5093175;28;20173;-80
2022/02/19 04:16:17;;;;;;;3.43;3.13;;;7.90;28.30;;;;;;5091949;28;20185;-79
2022/02/19 04:18:42;;;;;;;8.60;4.67;;;7.80;28.10;;;;;;5092282;28;20193;-80
2022/02/19 04:21:08;;;;;;;3.93;3.63;;;7.80;27.40;;;;;;5092170;28;20213;-80
2022/02/19 04:23:35;;;;;;;11.10;3.70;;;7.70;27.80;;;;;;5091971;28;20314;-80
2022/02/19 04:26:01;;;;;;;5.60;3.50;;;7.60;27.90;;;;;;5110672;28;20535;-81
2022/02/19 04:28:27;;;;;;;5.93;3.60;;;7.70;27.50;;;;;;5091273;28;20411;-81
2022/02/19 04:30:53;;;;;;;4.23;3.90;;;7.70;27.80;;;;;;5091852;28;20180;-81
2022/02/19 04:33:20;;;;;;;4.18;3.38;;;7.60;28.30;;;;;;5091258;28;20411;-80
2022/02/19 04:35:46;;;;;;;3.77;3.47;;;7.60;28.30;;;;;;5091795;28;20178;-80
2022/02/19 04:38:12;;;;;;;4.70;4.17;;;7.60;27.30;;;;;;5091919;28;20518;-80
2022/02/19 04:40:38;;;;;;;6.17;4.03;;;7.60;27.60;;;;;;5091905;28;20170;-80
2022/02/19 04:43:04;;;;;;;4.03;3.50;;;7.60;28.20;;;;;;5091973;28;20484;-80
2022/02/19 04:45:30;;;;;;;6.20;4.30;;;7.60;27.90;;;;;;5091090;28;20170;-80
2022/02/19 04:47:56;;;;;;;3.97;3.53;;;7.50;27.80;;;;;;5091522;28;20188;-80
2022/02/19 04:50:22;;;;;;;5.80;4.20;;;7.50;28.10;;;;;;5091459;28;20174;-80
2022/02/19 04:52:47;;;;;;;4.97;3.40;;;7.50;27.70;;;;;;5091957;28;20469;-81
2022/02/19 04:55:14;;;;;;;4.13;3.50;;;7.50;28.30;;;;;;5091810;28;20174;-80
2022/02/19 04:57:43;;;;;;;4.03;3.63;;;7.50;28.40;;;;;;5091268;28;20197;-81
2022/02/19 05:00:13;;;;;;;4.27;3.97;;;7.40;28.70;;;;;;5091143;28;20834;-80
2022/02/19 05:02:39;;;;;;;4.53;3.97;;;7.40;28.70;;;;;;5091676;28;20815;-80
2022/02/19 05:05:05;;;;;;;4.70;3.80;;;7.30;29.00;;;;;;5091617;28;20501;-80
2022/02/19 05:07:32;;;;;;;6.50;3.77;;;7.40;29.00;;;;;;5091414;28;20415;-80
2022/02/19 05:09:58;;;;;;;4.77;3.57;;;7.40;29.00;;;;;;5091261;28;20413;-80
2022/02/19 05:12:24;;;;;;;6.10;3.57;;;7.40;29.60;;;;;;5091302;28;20411;-81
2022/02/19 05:14:49;;;;;;;7.07;3.90;;;7.40;28.40;;;;;;5092072;28;20506;-81
2022/02/19 05:17:16;;;;;;;6.40;3.40;;;7.40;29.20;;;;;;5092519;28;20219;-80
2022/02/19 05:19:42;;;;;;;4.27;3.87;;;7.30;28.50;;;;;;5092772;28;20181;-80
2022/02/19 05:22:11;;;;;;;5.90;3.60;;;7.30;29.00;;;;;;5111419;28;20411;-80
2022/02/19 05:24:37;;;;;;;8.70;4.27;;;7.20;29.30;;;;;;5094308;28;20408;-81
2022/02/19 05:27:03;;;;;;;4.60;3.70;;;7.30;28.80;;;;;;5093930;28;20894;-81
2022/02/19 05:29:28;;;;;;;9.40;4.10;;;7.30;28.80;;;;;;5094776;28;20173;-81
2022/02/19 05:31:54;;;;;;;8.40;4.40;;;7.30;28.80;;;;;;5094884;28;20175;-81
2022/02/19 05:34:20;;;;;;;4.10;3.77;;;7.30;29.20;;;;;;5094727;28;20185;-81
2022/02/19 05:36:45;;;;;;;4.87;4.23;;;7.30;29.10;;;;;;5094882;28;20178;-81
2022/02/19 05:39:11;;;;;;;5.50;3.90;;;7.20;29.70;;;;;;5094723;28;20189;-81
2022/02/19 05:41:37;;;;;;;4.73;4.13;;;7.20;29.70;;;;;;5094862;28;20605;-81
2022/02/19 05:44:06;;;;;;;5.47;3.80;;;7.20;30.00;;;;;;5094522;28;20697;-81
2022/02/19 05:46:33;;;;;;;4.07;3.70;;;7.20;29.90;;;;;;5094844;28;20192;-81
2022/02/19 05:48:59;;;;;;;5.10;4.60;;;7.20;29.40;;;;;;5094791;28;20914;-81
2022/02/19 05:51:25;;;;;;;6.73;4.50;;;7.10;30.10;;;;;;5094655;28;20415;-81
2022/02/19 05:53:51;;;;;;;4.43;4.03;;;7.20;29.40;;;;;;5094754;28;20178;-81
2022/02/19 05:56:16;;;;;;;4.13;3.67;;;7.20;29.60;;;;;;5094767;28;20174;-81
2022/02/19 05:58:45;;;;;;;4.90;3.43;;;7.10;29.00;;;;;;5094856;28;20183;-82
2022/02/19 06:01:11;;;;;;;4.67;4.10;;;7.00;30.40;;;;;;5094736;28;20185;-81
2022/02/19 06:03:39;;;;;;;9.00;4.43;;;7.00;30.00;;;;;;5094462;28;20484;-81
2022/02/19 06:06:05;;;;;;;4.57;4.17;;;7.10;29.80;;;;;;5094537;28;20824;-81
2022/02/19 06:08:31;;;;;;;5.23;3.60;;;7.10;29.80;;;;;;5094622;28;20789;-81
2022/02/19 06:10:57;;;;;;;7.50;4.00;;;7.00;29.90;;;;;;5095096;28;20413;-81
2022/02/19 06:13:23;;;;;;;7.00;4.03;;;7.00;29.40;;;;;;5095016;28;20418;-81
2022/02/19 06:15:49;;;;;;;4.73;3.73;;;7.00;29.70;;;;;;5094693;28;20506;-81
2022/02/19 06:18:16;;;;;;;7.13;5.07;;;7.00;29.70;;;;;;5094450;28;20236;-80
2022/02/19 06:20:42;;;;;;;6.90;4.10;;;7.00;29.70;;;;;;5094143;28;20411;-81
2022/02/19 06:23:08;;;;;;;4.00;3.70;;;7.10;30.10;;;;;;5093911;28;20465;-80
2022/02/19 06:25:34;;;;;;;6.40;4.63;;;7.00;30.00;;;;;;5094223;28;20833;-80
2022/02/19 06:28:00;;;;;;;5.93;4.20;;;7.00;30.00;;;;;;5094388;28;20172;-80
2022/02/19 06:30:26;;;;;;;4.43;3.97;;;6.90;30.00;;;;;;5092274;28;20408;-79
2022/02/19 06:32:51;;;;;;;5.13;4.37;;;6.90;30.30;;;;;;5091864;28;20405;-80
2022/02/19 06:35:17;;;;;;;5.83;4.47;;;6.90;29.60;;;;;;5073786;28;20452;-80
2022/02/19 06:37:45;;;;;;;4.97;3.67;;;6.80;29.90;;;;;;5073510;28;20213;-80
2022/02/19 06:40:13;;;;;;;5.43;4.70;;;6.70;30.20;;;;;;5077208;28;21084;-79
2022/02/19 06:42:40;;;;;;;5.17;4.10;;;6.70;29.90;;;;;;5076777;28;20460;-81
2022/02/19 06:45:07;;;;;;;7.03;4.60;;;6.80;30.00;;;;;;5077196;28;20426;-80
2022/02/19 06:47:33;;;;;;;4.13;3.77;;;6.70;30.90;;;;;;5077120;28;20776;-82
2022/02/19 06:50:00;;;;;;;4.57;4.10;;;6.80;29.90;;;;;;5077069;28;20498;-79
2022/02/19 06:52:27;;;;;;;4.57;4.17;;;6.70;30.70;;;;;;5100972;27;20791;-81
2022/02/19 06:54:52;;;;;;;6.50;4.40;;;6.70;30.00;;;;;;5135577;27;20421;-81
2022/02/19 06:57:20;;;;;;;4.80;4.10;;;6.70;31.20;;;;;;5116574;27;20410;-81
2022/02/19 06:59:45;;;;;;;5.40;4.23;;;6.70;30.80;;;;;;5117727;27;20188;-81
2022/02/19 07:02:11;;;;;;;8.50;3.97;;;6.70;31.50;;;;;;5117262;27;20407;-81
2022/02/19 07:04:37;;;;;;;7.13;4.20;;;6.70;31.00;;;;;;5117871;27;20169;-80
2022/02/19 07:07:02;;;;;;;7.33;3.90;;;6.80;30.30;;;;;;5117931;27;20189;-81
2022/02/19 07:09:28;;;;;;;5.60;3.80;;;6.70;29.90;;;;;;5117572;27;20197;-82
2022/02/19 07:11:56;;;;;;;7.78;4.30;;;6.60;31.40;;;;;;5116776;27;20468;-82
2022/02/19 07:14:23;;;;;;;3.90;3.33;;;6.60;30.80;;;;;;5116282;27;20225;-84
2022/02/19 07:16:49;;;;;;;3.50;3.30;;;6.70;30.90;;;;;;5115402;27;20445;-83
2022/02/19 07:19:15;;;;;;;5.37;3.80;;;6.60;30.30;;;;;;5115422;27;20411;-83
2022/02/19 07:21:41;;;;;;;4.73;3.80;;;6.70;30.00;;;;;;5115360;27;20230;-83
2022/02/19 07:24:07;;;;;;;7.13;4.37;;;6.70;31.10;;;;;;5115056;27;20982;-82
2022/02/19 07:26:33;;;;;;;8.30;5.07;;;6.70;30.30;;;;;;5115653;27;20399;-83
2022/02/19 07:28:59;;;;;;;6.67;4.00;;;6.70;31.30;;;;;;5115389;27;20526;-83
2022/02/19 07:31:25;;;;;;;8.90;4.67;;;6.80;29.90;;;;;;5116912;27;20310;-81
2022/02/19 07:33:51;;;;;;;4.33;3.77;;;6.80;30.80;;;;;;5116711;27;20411;-81
2022/02/19 07:36:16;;;;;;;5.93;4.10;;;6.80;30.50;;;;;;5117051;27;20422;-81
2022/02/19 07:38:42;;;;;;;7.80;4.50;;;6.80;30.50;;;;;;5116892;27;20177;-83
2022/02/19 07:41:07;;;;;;;8.63;4.87;;;6.80;30.50;;;;;;5116913;27;20184;-80
2022/02/19 07:43:33;;;;;;;9.20;4.47;;;6.90;30.60;;;;;;5116395;27;20274;-82
2022/02/19 07:46:00;;;;;;;5.37;4.00;;;6.90;30.00;;;;;;5117041;27;20208;-82
2022/02/19 07:48:26;;;;;;;6.07;3.57;;;7.00;30.20;;;;;;5116444;27;20195;-83
2022/02/19 07:59:04;;;;;;;5.23;3.63;;;7.10;30.90;;;;;;5135171;27;20413;-82
2022/02/19 08:01:30;;;;;;;4.40;4.07;;;7.20;30.10;;;;;;5116379;27;20414;-82
2022/02/19 08:03:55;;;;;;;5.50;3.90;;;7.20;30.10;;;;;;5116111;27;20204;-82
2022/02/19 08:06:21;;;;;;;12.13;4.13;;;7.10;30.90;;;;;;5116255;27;20177;-82
2022/02/19 08:08:47;;;;;;;4.03;3.73;;;7.10;30.80;;;;;;5116381;27;20540;-82
2022/02/19 08:11:13;;;;;;;8.57;4.77;;;7.20;31.20;;;;;;5116041;27;20179;-80
2022/02/19 08:13:39;;;;;;;7.03;3.53;;;7.20;30.80;;;;;;5116106;27;20181;-82
2022/02/19 08:16:06;;;;;;;8.17;3.93;;;7.20;31.60;;;;;;5115760;27;20804;-82
2022/02/19 08:18:32;;;;;;;5.17;4.27;;;7.20;30.60;;;;;;5116026;27;20173;-82
2022/02/19 08:20:58;;;;;;;5.80;3.80;;;7.20;30.80;;;;;;5098995;27;20445;-81
2022/02/19 08:23:23;;;;;;;6.73;3.80;;;7.10;30.40;;;;;;5115587;27;20509;-81
2022/02/19 08:25:49;;;;;;;4.13;3.30;;;7.20;30.10;;;;;;5115761;27;20178;-79
2022/02/19 08:28:15;;;;;;;8.43;3.83;;;7.30;29.20;;;;;;5115794;27;20202;-81
2022/02/19 08:30:42;;;;;;;12.77;4.67;;;7.30;29.90;;;;;;5115651;27;20402;-81
2022/02/19 08:33:09;;;;;;;5.70;3.97;;;7.30;30.20;;;;;;5115689;27;20517;-81
2022/02/19 08:35:36;;;;;;;5.37;4.87;;;7.20;30.10;;;;;;5115443;27;20430;-82
2022/02/19 08:38:02;;;;;;;6.83;4.10;;;7.20;30.50;;;;;;5115756;27;20782;-81
2022/02/19 08:40:28;;;;;;;6.73;3.37;;;7.30;30.20;;;;;;5115281;27;20411;-81
2022/02/19 08:42:54;;;;;;;8.10;4.00;;;7.30;30.00;;;;;;5115328;27;20454;-80
2022/02/19 08:45:21;;;;;;;11.30;3.67;;;7.30;30.00;;;;;;5115171;27;20903;-80
2022/02/19 08:47:48;;;;;;;4.70;3.70;;;7.40;29.40;;;;;;5115374;27;20421;-80
2022/02/19 08:50:15;;;;;;;7.03;4.10;;;7.40;29.50;;;;;;5115365;27;20906;-80
2022/02/19 08:52:46;;;;;;;4.23;3.60;;;7.30;30.20;;;;;;5115137;27;20462;-80
2022/02/19 08:55:14;;;;;;;5.63;3.70;;;7.30;30.30;;;;;;5115477;27;20414;-80
2022/02/19 08:57:39;;;;;;;4.07;3.63;;;7.40;30.30;;;;;;5115738;27;20969;-79
2022/02/19 09:00:09;;;;;;;5.20;3.60;;;7.40;29.50;;;;;;5115576;27;20525;-80
2022/02/19 09:02:35;;;;;;;5.30;3.47;;;7.40;29.10;;;;;;5115138;27;20205;-82
2022/02/19 09:05:01;;;;;;;4.03;3.40;;;7.40;29.10;;;;;;5114870;27;20405;-82
2022/02/19 09:07:28;;;;;;;5.03;3.23;;;7.40;29.50;;;;;;5115085;27;20414;-82
2022/02/19 09:09:53;;;;;;;4.93;4.40;;;7.40;28.80;;;;;;5112712;27;20983;-83
2022/02/19 09:12:21;;;;;;;5.73;3.63;;;7.30;28.70;;;;;;5074564;28;20511;-83
2022/02/19 09:14:47;;;;;;;4.83;3.57;;;7.40;28.90;;;;;;5074216;28;20404;-82
2022/02/19 09:17:12;;;;;;;5.43;4.07;;;7.30;28.50;;;;;;5090900;28;20432;-83
2022/02/19 09:19:38;;;;;;;5.83;3.60;;;7.40;29.00;;;;;;5095316;28;20695;-82
2022/02/19 09:22:05;;;;;;;4.07;3.50;;;7.50;29.30;;;;;;5095395;28;20699;-83
2022/02/19 09:24:31;;;;;;;4.40;4.00;;;7.50;29.80;;;;;;5094601;28;20566;-82
2022/02/19 09:26:56;;;;;;;3.43;3.20;;;7.70;29.50;;;;;;5095101;28;20534;-81
2022/02/19 09:29:25;;;;;;;5.23;3.33;;;7.70;28.40;;;;;;5094822;28;20177;-82
2022/02/19 09:31:51;;;;;;;3.30;3.00;;;7.70;28.20;;;;;;5094506;28;20173;-82
2022/02/19 09:34:17;;;;;;;7.60;3.70;;;7.70;27.90;;;;;;5094370;28;20870;-82
2022/02/19 09:36:43;;;;;;;4.20;3.23;;;7.70;28.20;;;;;;5094757;28;20443;-83
2022/02/19 09:39:09;;;;;;;4.33;3.40;;;7.80;28.10;;;;;;5094766;28;20453;-82
2022/02/19 09:41:34;;;;;;;5.10;3.37;;;7.70;28.40;;;;;;5094919;28;20688;-81
2022/02/19 09:44:04;;;;;;;5.60;3.27;;;7.80;28.00;;;;;;5094972;28;20201;-84
2022/02/19 09:46:31;;;;;;;5.00;3.00;;;8.00;26.80;;;;;;5094838;28;20169;-84
2022/02/19 09:48:57;;;;;;;7.60;3.90;;;7.90;27.30;;;;;;5094963;28;20411;-83
2022/02/19 09:51:23;;;;;;;4.27;3.87;;;7.90;27.20;;;;;;5094981;28;20757;-83
2022/02/19 09:53:49;;;;;;;3.77;3.47;;;7.80;27.50;;;;;;5094717;28;20510;-81
2022/02/19 09:56:15;;;;;;;3.73;3.00;;;7.80;28.30;;;;;;5095760;28;20425;-81
2022/02/19 09:58:45;;;;;;;5.57;3.90;;;7.90;27.40;;;;;;5094919;28;20446;-82
2022/02/19 10:01:22;;;;;;;3.60;3.20;;;8.00;27.70;;;;;;5094876;28;20182;-82
2022/02/19 10:03:56;;;;;;;6.73;6.17;;;8.00;27.20;;;;;;5094509;28;20497;-82
2022/02/19 10:06:28;;;;;;;3.67;3.23;;;8.00;27.80;;;;;;5094804;28;20444;-82
2022/02/19 10:09:14;;;;;;;4.90;3.70;;;8.10;27.10;;;;;;5094819;28;20534;-82
2022/02/19 10:11:40;;;;;;;4.93;3.40;;;8.20;28.10;;;;;;5094724;28;20400;-82
2022/02/19 10:14:30;;;;;;;4.53;3.60;;;8.30;27.80;;;;;;5096688;28;20443;-81
2022/02/19 10:17:03;;;;;;;5.87;3.70;;;8.30;26.90;;;;;;5098627;28;20479;-81
2022/02/19 10:19:29;;;;;;;4.43;3.30;;;8.30;26.30;;;;;;5098458;28;20506;-81
2022/02/19 10:22:16;;;;;;;4.60;3.40;;;8.30;26.50;;;;;;5098655;28;20548;-80
2022/02/19 10:24:48;;;;;;;4.43;3.40;;;8.30;27.10;;;;;;5116961;28;20225;-79
2022/02/19 10:27:14;;;;;;;7.20;4.40;;;8.40;26.70;;;;;;5098571;28;20407;-80
2022/02/19 10:29:53;;;;;;;3.50;3.20;;;8.40;27.30;;;;;;5098390;28;20400;-80
2022/02/19 10:32:19;;;;;;;4.77;2.73;;;8.50;26.80;;;;;;5098244;28;20408;-80
2022/02/19 10:35:05;;;;;;;3.07;2.90;;;8.50;27.00;;;;;;5098419;28;20770;-80
2022/02/19 10:37:42;;;;;;;7.53;3.50;;;8.60;27.20;;;;;;5098400;28;20506;-82
2022/02/19 10:40:24;;;;;;;3.00;2.90;;;8.70;26.30;;;;;;5098324;28;20400;-81
2022/02/19 10:42:55;;;;;;;5.93;2.80;;;8.80;26.80;;;;;;5098076;28;20508;-82
2022/02/19 10:45:20;;;;;;;2.80;2.70;;;8.80;27.20;;;;;;5098288;28;20461;-82
2022/02/19 10:47:46;;;;;;;5.00;3.40;;;8.70;26.50;;;;;;5098177;28;20427;-81
2022/02/19 10:50:16;;;;;;;3.37;3.13;;;8.80;25.00;;;;;;5098184;28;20176;-82
2022/02/19 10:52:50;;;;;;;3.30;3.10;;;8.60;25.40;;;;;;5098117;28;20178;-82
2022/02/19 10:55:19;;;;;;;3.03;2.83;;;8.60;26.30;;;;;;5098094;28;20408;-82
2022/02/19 10:57:46;;;;;;;5.00;3.77;;;8.60;25.80;;;;;;5097975;28;21055;-82
2022/02/19 11:00:14;;;;;;;7.37;3.10;;;8.60;24.60;;;;;;5097980;28;20408;-81
2022/02/19 11:02:41;;;;;;;3.70;3.23;;;8.50;25.30;;;;;;5097697;28;20462;-80
2022/02/19 11:05:08;;;;;;;2.87;2.70;;;8.50;25.20;;;;;;5097856;28;20404;-80
2022/02/19 11:07:37;;;;;;;3.53;3.33;;;8.50;26.20;;;;;;5097870;28;20450;-81
2022/02/19 11:10:09;;;;;;;3.00;2.80;;;8.60;26.40;;;;;;5097876;28;20918;-82
2022/02/19 11:12:43;;;;;;;3.43;3.17;;;8.70;25.90;;;;;;5115703;28;20435;-81
2022/02/19 11:15:36;;;;;;;4.77;3.13;;;8.80;25.00;;;;;;5097660;28;20418;-81
2022/02/19 11:18:04;;;;;;;4.30;3.90;;;8.80;24.90;;;;;;5096066;28;20971;-83
2022/02/19 11:20:30;;;;;;;3.20;3.00;;;8.90;24.20;;;;;;5096334;28;20400;-86
2022/02/19 11:22:57;;;;;;;8.87;3.40;;;8.90;24.90;;;;;;5096958;28;20461;-84
2022/02/19 11:25:24;;;;;;;3.77;3.10;;;9.00;24.70;;;;;;5096214;28;20173;-80
2022/02/19 11:28:10;;;;;;;2.90;2.80;;;9.00;24.30;;;;;;5097255;28;20449;-80
2022/02/19 11:30:56;;;;;;;2.70;2.50;;;8.90;24.60;;;;;;5097146;28;20415;-80
2022/02/19 11:33:25;;;;;;;3.93;3.37;;;8.90;25.60;;;;;;5096433;28;20418;-80
2022/02/19 11:35:51;;;;;;;3.67;3.37;;;9.10;24.60;;;;;;5097067;28;20419;-79
2022/02/19 11:38:25;;;;;;;3.60;3.30;;;9.10;24.40;;;;;;5096943;28;20412;-78
2022/02/19 11:40:53;;;;;;;7.93;2.80;;;9.20;24.40;;;;;;5097153;28;20586;-79
2022/02/19 11:43:37;;;;;;;6.00;3.20;;;9.20;24.10;;;;;;5096609;28;20987;-79
2022/02/19 11:46:13;;;;;;;4.17;3.00;;;9.20;26.50;;;;;;5097054;28;20439;-79
2022/02/19 11:48:41;;;;;;;3.83;3.50;;;9.30;24.80;;;;;;5096780;28;20450;-78
2022/02/19 11:51:19;;;;;;;3.23;3.00;;;9.30;24.10;;;;;;5096805;28;20408;-79
2022/02/19 11:53:47;;;;;;;6.53;3.30;;;9.30;23.70;;;;;;5096719;28;20783;-80
2022/02/19 11:56:37;;;;;;;3.10;2.80;;;9.30;25.40;;;;;;5096636;28;20472;-80
2022/02/19 11:59:05;;;;;;;3.33;3.13;;;9.40;23.50;;;;;;5096905;28;20469;-81
2022/02/19 12:01:34;;;;;;;3.43;3.23;;;9.20;23.40;;;;;;5096858;28;20416;-81
2022/02/19 12:04:19;;;;;;;4.13;3.27;;;9.10;23.90;;;;;;5096418;28;20459;-80
2022/02/19 12:07:06;;;;;;;3.40;3.20;;;9.00;24.50;;;;;;5096335;28;20451;-81
2022/02/19 12:09:32;;;;;;;3.57;3.30;;;9.00;23.60;;;;;;5096095;28;20448;-79
2022/02/19 12:11:59;;;;;;;2.50;2.40;;;9.10;23.40;;;;;;5096310;28;20404;-79
2022/02/19 12:14:58;;;;;;;2.80;2.70;;;9.10;24.40;;;;;;5095944;28;20451;-79
2022/02/19 12:17:45;;;;;;;2.90;2.70;;;9.20;24.10;;;;;;5039916;28;20432;-78
2022/02/19 12:20:24;;;;;;;3.90;3.60;;;9.20;23.80;;;;;;5074252;28;20499;-82
2022/02/19 12:22:54;;;;;;;3.60;3.07;;;9.30;23.70;;;;;;5075449;28;20488;-78
2022/02/19 12:25:21;;;;;;;2.93;2.73;;;9.50;22.90;;;;;;5075291;28;20401;-78
2022/02/19 12:28:18;;;;;;;2.70;2.60;;;9.40;23.30;;;;;;5075433;28;20452;-77
2022/02/19 12:30:46;;;;;;;3.57;3.00;;;9.50;22.70;;;;;;5075212;28;20407;-78
2022/02/19 12:33:13;;;;;;;4.77;2.70;;;9.50;23.20;;;;;;5075166;28;20408;-78
2022/02/19 12:35:44;;;;;;;4.10;3.20;;;9.50;23.60;;;;;;5074984;28;20511;-78
2022/02/19 12:38:12;;;;;;;3.53;3.00;;;9.50;23.40;;;;;;5075038;28;20419;-77
2022/02/19 12:40:38;;;;;;;3.20;3.00;;;9.50;22.10;;;;;;5074970;28;20413;-78
2022/02/19 12:43:05;;;;;;;3.20;2.90;;;9.60;21.80;;;;;;5074913;28;20464;-78
2022/02/19 12:45:34;;;;;;;3.63;2.90;;;9.60;21.30;;;;;;5075482;28;20409;-78
2022/02/19 12:48:01;;;;;;;2.40;2.30;;;9.70;21.10;;;;;;5075422;28;20466;-78
2022/02/19 12:50:27;;;;;;;3.80;3.50;;;9.60;20.70;;;;;;5075240;28;20417;-78
2022/02/19 12:52:53;;;;;;;3.27;2.90;;;9.70;21.30;;;;;;5075002;28;20467;-82
2022/02/19 12:55:22;;;;;;;3.20;2.83;;;9.70;20.60;;;;;;5074744;28;20842;-78
2022/02/19 12:57:50;;;;;;;4.40;3.00;;;9.70;21.00;;;;;;5074835;28;20512;-78
2022/02/19 13:00:17;;;;;;;3.10;2.90;;;9.60;21.10;;;;;;5074760;28;20783;-77
2022/02/19 13:02:45;;;;;;;2.70;2.50;;;9.60;21.30;;;;;;5074488;28;20823;-77
2022/02/19 13:05:12;;;;;;;4.03;3.47;;;9.60;20.60;;;;;;5074672;28;20424;-82
2022/02/19 13:07:38;;;;;;;3.47;3.27;;;9.50;21.10;;;;;;5074474;28;20425;-82